createdAt,value
2018-03-15T00:05:05.669Z,94536
2018-03-15T00:10:33.812Z,94524
2018-03-15T00:16:01.961Z,94522
2018-03-15T00:21:30.162Z,94512
2018-03-15T00:26:58.362Z,94505
2018-03-15T00:32:27.321Z,94496
2018-03-15T00:37:55.496Z,94487
2018-03-15T00:43:23.733Z,94485
2018-03-15T00:48:52.708Z,94467
2018-03-15T00:54:20.871Z,94445
2018-03-15T00:59:54.397Z,94438
2018-03-15T01:05:22.602Z,94418
2018-03-15T01:10:50.763Z,94413
2018-03-15T01:16:18.898Z,94398
2018-03-15T01:21:47.846Z,94394
2018-03-15T01:27:16.771Z,94385
2018-03-15T01:32:45.712Z,94377
2018-03-15T01:38:14.629Z,94359
2018-03-15T01:43:43.700Z,94365
2018-03-15T01:49:12.611Z,94358
2018-03-15T01:54:40.981Z,94364
2018-03-15T02:00:09.130Z,94360
2018-03-15T02:05:39.314Z,94357
2018-03-15T02:11:07.495Z,94350
2018-03-15T02:16:35.828Z,94353
2018-03-15T02:22:04.064Z,94350
2018-03-15T02:27:32.317Z,94353
2018-03-15T02:33:00.528Z,94340
2018-03-15T02:38:28.694Z,94347
2018-03-15T02:43:56.864Z,94339
2018-03-15T02:49:26.018Z,94334
2018-03-15T02:54:54.195Z,94334
2018-03-15T03:00:22.419Z,94336
2018-03-15T03:05:50.597Z,94337
2018-03-15T03:11:20.459Z,94319
2018-03-15T03:16:49.372Z,94330
2018-03-15T03:22:17.526Z,94333
2018-03-15T03:27:46.426Z,94332
2018-03-15T03:33:16.539Z,94331
2018-03-15T03:38:44.748Z,94318
2018-03-15T03:44:13.679Z,94308
2018-03-15T03:49:43.579Z,94289
2018-03-15T03:55:12.549Z,94293
2018-03-15T04:00:40.697Z,94285
2018-03-15T04:06:09.636Z,94286
2018-03-15T04:11:37.860Z,94282
2018-03-15T04:17:07.060Z,94265
2018-03-15T04:22:35.247Z,94269
2018-03-15T04:28:04.383Z,94279
2018-03-15T04:33:32.580Z,94268
2018-03-15T04:39:00.737Z,94275
2018-03-15T04:44:28.879Z,94274
2018-03-15T04:49:58.002Z,94271
2018-03-15T04:55:26.162Z,94267
2018-03-15T05:00:54.323Z,94271
2018-03-15T05:06:22.479Z,94265
2018-03-15T05:11:50.660Z,94259
2018-03-15T05:17:19.791Z,94263
2018-03-15T05:22:49.686Z,94261
2018-03-15T05:28:18.042Z,94244
2018-03-15T05:33:46.977Z,94232
2018-03-15T05:39:15.147Z,94243
2018-03-15T05:44:43.304Z,94239
2018-03-15T05:50:11.463Z,94240
2018-03-15T05:55:42.271Z,94221
2018-03-15T06:01:11.181Z,94210
2018-03-15T06:06:40.085Z,94215
2018-03-15T06:12:08.327Z,94201
2018-03-15T06:17:36.576Z,94184
2018-03-15T06:23:05.503Z,94189
2018-03-15T06:28:33.845Z,94190
2018-03-15T06:34:02.020Z,94187
2018-03-15T06:39:30.176Z,94182
2018-03-15T06:44:58.306Z,94164
2018-03-15T06:50:26.829Z,94162
2018-03-15T06:55:55.724Z,94168
2018-03-15T07:01:23.951Z,94153
2018-03-15T07:06:52.119Z,94159
2018-03-15T07:12:20.282Z,94160
2018-03-15T07:17:48.421Z,94143
2018-03-15T07:23:16.562Z,94143
2018-03-15T07:28:45.586Z,94129
2018-03-15T07:34:15.450Z,94134
2018-03-15T07:39:44.368Z,94133
2018-03-15T07:45:12.541Z,94141
2018-03-15T07:50:40.720Z,94139
2018-03-15T07:56:09.653Z,94143
2018-03-15T08:01:37.802Z,94133
2018-03-15T08:07:05.934Z,94134
2018-03-15T08:12:34.304Z,94123
2018-03-15T08:18:02.475Z,94117
2018-03-15T08:23:30.608Z,94100
2018-03-15T08:28:59.540Z,94104
2018-03-15T08:34:27.677Z,94107
2018-03-15T08:39:55.867Z,94111
2018-03-15T08:45:24.017Z,94114
2018-03-15T08:50:52.239Z,94114
2018-03-15T08:56:20.394Z,94121
2018-03-15T09:01:48.560Z,94102
2018-03-15T09:07:16.706Z,94099
2018-03-15T09:12:44.876Z,94091
2018-03-15T09:18:13.014Z,94093
2018-03-15T09:23:41.957Z,94079
2018-03-15T09:29:10.109Z,94059
2018-03-15T09:34:38.300Z,94054
2018-03-15T09:40:06.396Z,94046
2018-03-15T09:45:34.595Z,94036
2018-03-15T09:51:03.507Z,94028
2018-03-15T09:56:31.666Z,94019
2018-03-15T10:01:59.807Z,94003
2018-03-15T10:07:27.961Z,93987
2018-03-15T10:13:06.016Z,93979
2018-03-15T10:18:37.865Z,93986
2018-03-15T10:24:06.006Z,93969
2018-03-15T10:29:34.917Z,93964
2018-03-15T10:35:08.567Z,93965
2018-03-15T10:40:37.513Z,93961
2018-03-15T10:46:05.686Z,93966
2018-03-15T10:51:34.491Z,93955
2018-03-15T10:57:03.398Z,93941
2018-03-15T11:02:37.462Z,93934
2018-03-15T11:08:11.307Z,93931
2018-03-15T11:13:39.499Z,93929
2018-03-15T11:24:46.859Z,93932
2018-03-15T11:30:16.912Z,93932
2018-03-15T11:35:45.296Z,93931
2018-03-15T11:41:13.477Z,93916
2018-03-15T11:46:41.628Z,93902
2018-03-15T11:52:09.788Z,93902
2018-03-15T11:57:38.030Z,93885
2018-03-15T12:03:06.950Z,93873
2018-03-15T12:08:35.095Z,93859
2018-03-15T12:14:03.280Z,93846
2018-03-15T12:19:32.230Z,93835
2018-03-15T12:25:00.375Z,93833
2018-03-15T12:30:28.555Z,93820
2018-03-15T12:35:56.734Z,93809
2018-03-15T12:41:24.943Z,93805
2018-03-15T12:46:53.096Z,93792
2018-03-15T12:52:21.324Z,93784
2018-03-15T12:57:49.802Z,93764
2018-03-15T13:03:17.951Z,93766
2018-03-15T13:08:46.131Z,93756
2018-03-15T13:14:15.061Z,93751
2018-03-15T13:19:43.225Z,93754
2018-03-15T13:25:11.462Z,93728
2018-03-15T13:36:38.416Z,93722
2018-03-15T13:42:06.599Z,93718
2018-03-15T13:47:35.640Z,93727
2018-03-15T13:53:03.853Z,93720
2018-03-15T13:58:32.032Z,93713
2018-03-15T14:04:00.247Z,93710
2018-03-15T14:09:28.406Z,93699
2018-03-15T14:14:56.565Z,93692
2018-03-15T14:20:24.735Z,93684
2018-03-15T14:25:52.900Z,93677
2018-03-15T14:31:21.101Z,93672
2018-03-15T14:36:49.283Z,93671
2018-03-15T14:42:18.364Z,93670
2018-03-15T14:47:47.293Z,93672
2018-03-15T14:53:15.438Z,93669
2018-03-15T14:58:43.594Z,93659
2018-03-15T15:04:11.771Z,93668
2018-03-15T15:09:40.696Z,93665
2018-03-15T15:15:09.644Z,93654
2018-03-15T15:20:39.046Z,93670
2018-03-15T15:26:07.280Z,93666
2018-03-15T15:31:35.429Z,93669
2018-03-15T15:37:03.645Z,93671
2018-03-15T15:42:31.856Z,93664
2018-03-15T15:48:00.255Z,93676
2018-03-15T15:53:28.442Z,93672
2018-03-15T15:58:57.369Z,93680
2018-03-15T16:04:25.599Z,93682
2018-03-15T16:09:54.581Z,93666
2018-03-15T16:15:22.749Z,93675
2018-03-15T16:20:50.898Z,93670
2018-03-15T16:26:19.185Z,93679
2018-03-15T16:31:51.644Z,93676
2018-03-15T16:37:20.735Z,93677
2018-03-15T16:42:50.616Z,93670
2018-03-15T16:48:18.838Z,93660
2018-03-15T16:53:47.009Z,93659
2018-03-15T16:59:44.939Z,93663
2018-03-15T17:05:18.336Z,93666
2018-03-15T17:10:47.471Z,93672
2018-03-15T17:16:16.396Z,93659
2018-03-15T17:21:44.796Z,93674
2018-03-15T17:27:12.975Z,93670
2018-03-15T17:32:41.952Z,93668
2018-03-15T17:38:13.572Z,93666
2018-03-15T17:43:51.489Z,93660
2018-03-15T17:49:19.670Z,93655
2018-03-15T17:54:49.167Z,93656
2018-03-15T18:00:17.523Z,93652
2018-03-15T18:05:46.155Z,93638
2018-03-15T18:11:14.628Z,93628
2018-03-15T18:16:43.046Z,93625
2018-03-15T18:22:23.725Z,93615
2018-03-15T18:28:22.907Z,93615
2018-03-15T18:33:53.167Z,93622
2018-03-15T18:39:21.911Z,93631
2018-03-15T18:44:52.378Z,93644
2018-03-15T18:50:21.651Z,93644
2018-03-15T18:55:49.835Z,93655
2018-03-15T19:01:20.439Z,93655
2018-03-15T19:06:49.360Z,93660
2018-03-15T19:12:20.220Z,93647
2018-03-15T19:17:51.961Z,93647
2018-03-15T19:23:25.053Z,93653
2018-03-15T19:28:59.496Z,93664
2018-03-15T19:34:29.669Z,93660
2018-03-15T19:45:41.141Z,93634
2018-03-15T19:56:52.248Z,93671
2018-03-15T20:02:21.834Z,93680
2018-03-15T20:07:51.206Z,93684
2018-03-15T20:13:20.857Z,93691
2018-03-15T20:19:01.431Z,93691
2018-03-15T20:24:30.762Z,93708
2018-03-15T20:30:02.987Z,93710
2018-03-15T20:35:31.400Z,93710
2018-03-15T20:41:21.298Z,93738
2018-03-15T20:53:06.158Z,93770
2018-03-15T20:58:34.342Z,93779
2018-03-15T21:04:02.908Z,93783
2018-03-15T21:09:31.790Z,93779
2018-03-15T21:15:00.242Z,93794
2018-03-15T21:20:50.715Z,93806
2018-03-15T21:26:19.859Z,93801
2018-03-15T21:31:48.889Z,93819
2018-03-15T21:37:26.274Z,93822
2018-03-15T21:42:54.456Z,93818
2018-03-15T21:48:22.671Z,93820
2018-03-15T21:53:51.636Z,93834
2018-03-15T21:59:23.920Z,93840
2018-03-15T22:04:52.261Z,93855
2018-03-15T22:10:23.824Z,93864
2018-03-15T22:15:52.114Z,93868
2018-03-15T22:21:20.441Z,93880
2018-03-15T22:26:49.621Z,93883
2018-03-15T22:32:24.434Z,93879
2018-03-15T22:37:53.260Z,93884
2018-03-15T22:43:22.441Z,93883
2018-03-15T22:48:50.921Z,93891
2018-03-15T22:54:19.319Z,93900
2018-03-15T22:59:47.772Z,93905
2018-03-15T23:05:17.907Z,93916
2018-03-15T23:10:46.356Z,93921
2018-03-15T23:16:14.799Z,93929
2018-03-15T23:21:44.004Z,93928
2018-03-15T23:27:14.400Z,93934
2018-03-15T23:32:43.608Z,93947
2018-03-15T23:38:18.361Z,93956
2018-03-15T23:43:46.805Z,93964
2018-03-15T23:49:17.212Z,93973
2018-03-15T23:54:45.969Z,93966
